Antis, Pennsylvania
Current Conditions -  °F | °C
As of 8:53 AM on Saturday 20 Dec 2014 (Local Time) from KAOO Reporting Station
Clear Clear  
Wind Chill: 16°   Ceiling: Unl
Heat Index: 25°   Visibility: 10mi
Dew Point: 19°   Wind: 8mph
Humidity: 78%   Direction: 20°NNE
Pressure: 30.23"   Gusts: NA
Location:  40.6274°N, 78.3392°W
Report Text: KAOO 201353Z AUTO 02007KT 10SM CLR M04/M07 A3023 RMK AO2 SLP257 T10391072
Loading
Personal Weather Stations






























Interactive Weather Map New forecast layout! Learn more

10-Day Weather Forecast

Advertisements
Track Severe Weather on mobile